createdAt,value
2018-04-10T00:01:50.235Z,76.10
2018-04-10T00:04:16.493Z,76.10
2018-04-10T00:06:42.769Z,76.10
2018-04-10T00:09:09.022Z,76.20
2018-04-10T00:11:35.297Z,76.30
2018-04-10T00:14:01.550Z,76.30
2018-04-10T00:16:27.809Z,76.20
2018-04-10T00:18:54.061Z,76.10
2018-04-10T00:21:20.331Z,75.90
2018-04-10T00:23:46.604Z,76.00
2018-04-10T00:26:12.881Z,76.10
2018-04-10T00:28:39.645Z,76.20
2018-04-10T00:31:06.233Z,76.60
2018-04-10T00:33:32.494Z,76.70
2018-04-10T00:35:59.377Z,76.80
2018-04-10T00:38:25.622Z,76.90
2018-04-10T00:40:52.644Z,77.50
2018-04-10T00:43:18.885Z,77.50
2018-04-10T00:45:45.137Z,77.50
2018-04-10T00:48:11.400Z,77.60
2018-04-10T00:50:38.417Z,77.50
2018-04-10T00:53:16.776Z,77.40
2018-04-10T00:55:43.084Z,77.40
2018-04-10T00:58:09.340Z,77.30
2018-04-10T01:00:35.645Z,77.10
2018-04-10T01:03:02.573Z,76.90
2018-04-10T01:05:28.857Z,76.90
2018-04-10T01:07:55.128Z,77.20
2018-04-10T01:10:22.129Z,77.00
2018-04-10T01:12:48.400Z,76.90
2018-04-10T01:15:14.629Z,77.10
2018-04-10T01:17:40.901Z,77.10
2018-04-10T01:20:07.157Z,76.70
2018-04-10T01:22:33.427Z,76.80
2018-04-10T01:24:59.690Z,77.00
2018-04-10T01:27:25.957Z,76.50
2018-04-10T01:29:52.288Z,76.30
2018-04-10T01:32:18.562Z,76.40
2018-04-10T01:34:44.820Z,76.10
2018-04-10T01:37:12.024Z,75.90
2018-04-10T01:39:38.288Z,75.80
2018-04-10T01:42:04.961Z,75.70
2018-04-10T01:44:31.196Z,75.40
2018-04-10T01:46:57.497Z,75.80
2018-04-10T01:49:23.768Z,75.20
2018-04-10T01:51:50.024Z,75.30
2018-04-10T01:54:17.021Z,75.80
2018-04-10T01:56:43.534Z,75.80
2018-04-10T01:59:09.773Z,75.90
2018-04-10T02:01:36.772Z,76.60
2018-04-10T02:04:03.026Z,76.60
2018-04-10T02:06:29.281Z,77.10
2018-04-10T02:08:55.549Z,77.60
2018-04-10T02:11:22.232Z,77.40
2018-04-10T02:13:48.509Z,77.40
2018-04-10T02:16:14.793Z,77.40
2018-04-10T02:18:41.840Z,77.60
2018-04-10T02:21:08.885Z,77.70
2018-04-10T02:23:35.136Z,77.70
2018-04-10T02:26:01.462Z,77.40
2018-04-10T02:28:28.458Z,77.40
2018-04-10T02:30:55.201Z,76.90
2018-04-10T02:33:21.465Z,77.00
2018-04-10T02:35:47.725Z,76.80
2018-04-10T02:38:14.737Z,76.90
2018-04-10T02:40:41.461Z,76.90
2018-04-10T02:43:07.806Z,76.90
2018-04-10T02:45:34.117Z,76.80
2018-04-10T02:48:00.401Z,76.90
2018-04-10T02:50:26.801Z,77.00
2018-04-10T02:52:53.065Z,77.30
2018-04-10T02:55:19.386Z,77.70
2018-04-10T02:57:45.676Z,77.40
2018-04-10T03:00:11.922Z,77.30
2018-04-10T03:02:38.229Z,77.50
2018-04-10T03:05:04.497Z,77.70
2018-04-10T03:07:30.798Z,77.60
2018-04-10T03:09:57.025Z,77.60
2018-04-10T03:12:23.321Z,77.40
2018-04-10T03:14:50.302Z,77.60
2018-04-10T03:17:16.704Z,77.60
2018-04-10T03:19:43.717Z,78.20
2018-04-10T03:22:10.087Z,78.20
2018-04-10T03:24:37.132Z,78.70
2018-04-10T03:27:03.413Z,78.70
2018-04-10T03:29:29.717Z,78.40
2018-04-10T03:31:56.698Z,78.60
2018-04-10T03:34:22.968Z,78.60
2018-04-10T03:36:49.365Z,78.70
2018-04-10T03:39:16.629Z,78.90
2018-04-10T03:41:42.882Z,78.80
2018-04-10T03:44:09.153Z,78.70
2018-04-10T03:46:35.402Z,78.60
2018-04-10T03:49:01.693Z,78.70
2018-04-10T03:51:27.948Z,78.60
2018-04-10T03:53:54.209Z,78.70
2018-04-10T03:56:20.460Z,78.50
2018-04-10T03:58:46.800Z,78.90
2018-04-10T04:01:13.057Z,78.60
2018-04-10T04:03:40.321Z,78.90
2018-04-10T04:06:06.573Z,78.70
2018-04-10T04:08:32.901Z,78.60
2018-04-10T04:10:59.924Z,79.00
2018-04-10T04:13:26.203Z,78.90
2018-04-10T04:15:53.280Z,79.20
2018-04-10T04:18:31.809Z,79.30
2018-04-10T04:21:10.297Z,79.30
2018-04-10T04:23:36.565Z,79.40
2018-04-10T04:26:02.889Z,79.70
2018-04-10T04:28:44.894Z,79.50
2018-04-10T04:31:11.170Z,79.60
2018-04-10T04:33:37.430Z,79.50
2018-04-10T04:36:03.708Z,79.30
2018-04-10T04:38:29.964Z,79.10
2018-04-10T04:40:56.282Z,79.30
2018-04-10T04:43:22.552Z,79.40
2018-04-10T04:45:48.846Z,79.70
2018-04-10T04:48:15.109Z,79.70
2018-04-10T04:50:41.381Z,79.40
2018-04-10T04:53:07.640Z,79.40
2018-04-10T04:55:33.922Z,79.60
2018-04-10T04:58:00.245Z,79.70
2018-04-10T05:00:27.145Z,80.00
2018-04-10T05:02:53.377Z,80.00
2018-04-10T05:05:19.667Z,79.80
2018-04-10T05:07:45.906Z,79.70
2018-04-10T05:10:12.150Z,80.00
2018-04-10T05:12:39.169Z,79.70
2018-04-10T05:15:05.444Z,79.60
2018-04-10T05:17:31.710Z,80.00
2018-04-10T05:19:57.989Z,79.80
2018-04-10T05:22:24.264Z,79.60
2018-04-10T05:24:50.516Z,79.60
2018-04-10T05:27:16.772Z,79.30
2018-04-10T05:29:43.761Z,79.40
2018-04-10T05:32:10.050Z,79.40
2018-04-10T05:34:36.313Z,79.40
2018-04-10T05:37:03.169Z,79.20
2018-04-10T05:39:29.416Z,78.90
2018-04-10T05:41:55.672Z,78.90
2018-04-10T05:44:21.896Z,79.20
2018-04-10T05:46:48.165Z,78.70
2018-04-10T05:49:15.551Z,79.00
2018-04-10T05:51:41.820Z,78.90
2018-04-10T05:54:08.077Z,79.10
2018-04-10T05:56:34.349Z,79.20
2018-04-10T05:59:00.598Z,79.30
2018-04-10T06:01:26.873Z,79.40
2018-04-10T06:03:53.136Z,79.60
2018-04-10T06:06:19.388Z,79.60
2018-04-10T06:08:45.653Z,78.70
2018-04-10T06:11:12.637Z,78.70
2018-04-10T06:13:38.913Z,78.70
2018-04-10T06:16:05.152Z,78.60
2018-04-10T06:18:31.429Z,78.90
2018-04-10T06:20:57.789Z,78.70
2018-04-10T06:23:24.485Z,78.40
2018-04-10T06:25:50.769Z,78.30
2018-04-10T06:28:17.063Z,78.10
2018-04-10T06:30:44.045Z,77.60
2018-04-10T06:33:10.309Z,77.60
2018-04-10T06:35:36.568Z,77.60
2018-04-10T06:38:03.785Z,77.00
2018-04-10T06:40:30.056Z,76.60
2018-04-10T06:42:56.609Z,76.20
2018-04-10T06:45:22.865Z,76.00
2018-04-10T06:47:49.128Z,76.10
2018-04-10T06:50:15.364Z,76.00
2018-04-10T06:52:41.629Z,75.20
2018-04-10T06:55:07.909Z,74.90
2018-04-10T06:57:34.169Z,75.40
2018-04-10T07:00:00.456Z,75.40
2018-04-10T07:02:26.693Z,75.60
2018-04-10T07:04:52.966Z,75.90
2018-04-10T07:07:19.685Z,75.50
2018-04-10T07:09:45.945Z,75.20
2018-04-10T07:12:12.916Z,74.40
2018-04-10T07:14:39.264Z,74.40
2018-04-10T07:17:05.553Z,73.90
2018-04-10T07:19:31.848Z,73.90
2018-04-10T07:21:58.209Z,73.00
2018-04-10T07:24:24.472Z,73.70
2018-04-10T07:26:50.717Z,73.10
2018-04-10T07:29:17.022Z,71.50
2018-04-10T07:31:43.265Z,72.00
2018-04-10T07:34:09.585Z,71.60
2018-04-10T07:36:35.842Z,71.00
2018-04-10T07:39:02.152Z,71.30
2018-04-10T07:41:28.397Z,70.90
2018-04-10T07:43:54.654Z,70.30
2018-04-10T07:46:21.365Z,70.60
2018-04-10T07:48:47.629Z,71.30
2018-04-10T07:51:13.904Z,71.20
2018-04-10T07:53:40.229Z,70.80
2018-04-10T07:56:06.497Z,70.60
2018-04-10T07:58:32.778Z,69.40
2018-04-10T08:00:59.052Z,68.80
2018-04-10T08:03:25.309Z,68.90
2018-04-10T08:05:51.816Z,68.40
2018-04-10T08:08:18.065Z,68.90
2018-04-10T08:10:44.338Z,68.80
2018-04-10T08:13:11.369Z,68.50
2018-04-10T08:15:37.632Z,68.60
2018-04-10T08:18:03.917Z,68.70
2018-04-10T08:20:30.186Z,68.30
2018-04-10T08:22:56.434Z,68.90
2018-04-10T08:25:23.433Z,69.10
2018-04-10T08:27:49.720Z,68.90
2018-04-10T08:30:16.001Z,69.30
2018-04-10T08:32:42.333Z,68.90
2018-04-10T08:35:08.790Z,69.00
2018-04-10T08:37:35.033Z,67.80
2018-04-10T08:40:01.282Z,68.60
2018-04-10T08:42:27.586Z,69.30
2018-04-10T08:44:53.869Z,69.40
2018-04-10T08:47:20.123Z,68.80
2018-04-10T08:49:46.373Z,68.10
2018-04-10T08:52:13.070Z,68.70
2018-04-10T08:54:39.321Z,68.00
2018-04-10T08:57:05.617Z,68.30
2018-04-10T08:59:31.869Z,69.50
2018-04-10T09:01:58.674Z,70.40
2018-04-10T09:04:24.971Z,71.10
2018-04-10T09:06:51.249Z,71.10
2018-04-10T09:09:18.257Z,72.70
2018-04-10T09:11:44.533Z,72.50
2018-04-10T09:14:10.797Z,72.60
2018-04-10T09:16:37.179Z,73.60
2018-04-10T09:19:04.173Z,73.50
2018-04-10T09:21:30.457Z,73.40
2018-04-10T09:23:56.698Z,74.30
2018-04-10T09:26:22.970Z,74.80
2018-04-10T09:28:49.217Z,74.70
2018-04-10T09:31:15.829Z,74.60
2018-04-10T09:33:42.174Z,75.00
2018-04-10T09:36:08.449Z,74.20
2018-04-10T09:38:34.741Z,73.20
2018-04-10T09:41:01.013Z,72.00
2018-04-10T09:43:28.025Z,71.00
2018-04-10T09:45:54.541Z,71.00
2018-04-10T09:48:20.813Z,68.60
2018-04-10T09:50:47.336Z,68.70
2018-04-10T09:53:13.857Z,68.10
2018-04-10T09:55:40.128Z,67.10
2018-04-10T09:58:06.399Z,66.00
2018-04-10T10:00:38.724Z,64.90
2018-04-10T10:03:05.487Z,65.20
2018-04-10T10:05:31.737Z,64.50
2018-04-10T10:07:58.013Z,65.00
2018-04-10T10:10:24.257Z,62.90
2018-04-10T10:12:51.116Z,64.00
2018-04-10T10:15:17.689Z,63.30
2018-04-10T10:17:43.965Z,62.10
2018-04-10T10:20:10.292Z,61.10
2018-04-10T10:22:36.555Z,62.20
2018-04-10T10:25:02.841Z,62.60
2018-04-10T10:27:29.126Z,59.80
2018-04-10T10:29:55.408Z,61.50
2018-04-10T10:32:21.783Z,59.80
2018-04-10T10:34:48.064Z,59.20
2018-04-10T10:37:15.199Z,61.70
2018-04-10T10:39:41.741Z,61.60
2018-04-10T10:42:07.992Z,60.80
2018-04-10T10:44:34.249Z,59.20
2018-04-10T10:47:00.509Z,57.60
2018-04-10T10:49:26.820Z,57.10
2018-04-10T10:51:53.061Z,57.50
2018-04-10T10:54:19.341Z,56.30
2018-04-10T10:56:45.609Z,56.00
2018-04-10T10:59:12.308Z,56.30
2018-04-10T11:01:38.562Z,56.40
2018-04-10T11:04:04.822Z,56.80
2018-04-10T11:06:31.079Z,56.60
2018-04-10T11:08:57.357Z,58.20
2018-04-10T11:11:23.713Z,57.00
2018-04-10T11:13:49.957Z,56.80
2018-04-10T11:16:16.253Z,57.10
2018-04-10T11:18:42.507Z,57.40
2018-04-10T11:21:08.805Z,55.90
2018-04-10T11:23:35.080Z,57.60
2018-04-10T11:26:01.425Z,57.20
2018-04-10T11:28:27.669Z,55.90
2018-04-10T11:30:53.929Z,54.60
2018-04-10T11:33:20.173Z,54.90
2018-04-10T11:35:46.438Z,55.60
2018-04-10T11:38:12.744Z,53.40
2018-04-10T11:40:39.121Z,54.10
2018-04-10T11:43:05.377Z,53.90
2018-04-10T11:45:31.681Z,54.00
2018-04-10T11:47:57.928Z,54.80
2018-04-10T11:50:24.181Z,54.30
2018-04-10T11:52:50.732Z,53.40
2018-04-10T11:55:17.373Z,54.10
2018-04-10T11:57:43.651Z,54.60
2018-04-10T12:00:09.994Z,53.40
2018-04-10T12:02:36.393Z,52.70
2018-04-10T12:05:02.689Z,53.40
2018-04-10T12:07:28.948Z,53.70
2018-04-10T12:09:55.205Z,54.70
2018-04-10T12:12:21.474Z,53.10
2018-04-10T12:14:47.719Z,55.60
2018-04-10T12:17:14.061Z,54.60
2018-04-10T12:19:40.313Z,53.80
2018-04-10T12:22:06.591Z,55.90
2018-04-10T12:24:33.825Z,55.70
2018-04-10T12:27:00.097Z,55.70
2018-04-10T12:29:26.370Z,54.60
2018-04-10T12:31:52.692Z,53.60
2018-04-10T12:34:19.033Z,53.80
2018-04-10T12:36:45.332Z,53.80
2018-04-10T12:39:11.625Z,52.00
2018-04-10T12:41:38.693Z,51.80
2018-04-10T12:44:05.005Z,51.80
2018-04-10T12:46:32.003Z,53.00
2018-04-10T12:48:58.287Z,52.80
2018-04-10T12:51:24.561Z,50.00
2018-04-10T12:53:50.849Z,48.70
2018-04-10T12:56:17.109Z,47.60
2018-04-10T12:58:43.385Z,48.20
2018-04-10T13:01:09.677Z,46.40
2018-04-10T13:03:35.954Z,45.30
2018-04-10T13:06:02.236Z,46.40
2018-04-10T13:08:28.565Z,47.90
2018-04-10T13:10:54.865Z,47.60
2018-04-10T13:13:22.469Z,44.90
2018-04-10T13:15:48.774Z,44.80
2018-04-10T13:18:15.052Z,44.10
2018-04-10T13:20:41.392Z,42.70
2018-04-10T13:23:08.973Z,42.40
2018-04-10T13:25:35.721Z,41.70
2018-04-10T13:28:02.049Z,42.50
2018-04-10T13:30:29.049Z,41.10
2018-04-10T13:32:55.325Z,41.00
2018-04-10T13:35:21.597Z,41.20
2018-04-10T13:37:47.877Z,41.60
2018-04-10T13:40:14.321Z,42.10
2018-04-10T13:42:40.567Z,40.40
2018-04-10T13:45:06.877Z,40.10
2018-04-10T13:47:33.337Z,40.20
2018-04-10T13:49:59.625Z,41.80
2018-04-10T13:52:25.892Z,41.40
2018-04-10T13:54:52.173Z,42.50
2018-04-10T13:57:18.447Z,41.80
2018-04-10T13:59:44.717Z,39.70
2018-04-10T14:02:11.268Z,37.30
2018-04-10T14:04:37.568Z,36.50
2018-04-10T14:07:03.879Z,37.60
2018-04-10T14:09:30.168Z,38.60
2018-04-10T14:11:56.493Z,37.30
2018-04-10T14:14:22.869Z,37.00
2018-04-10T14:16:49.181Z,36.20
2018-04-10T14:19:15.786Z,35.70
2018-04-10T14:21:42.044Z,34.20
2018-04-10T14:24:08.348Z,33.30
2018-04-10T14:26:35.348Z,36.80
2018-04-10T14:29:01.623Z,36.80
2018-04-10T14:31:27.930Z,38.00
2018-04-10T14:33:54.225Z,38.30
2018-04-10T14:36:27.429Z,36.80
2018-04-10T14:38:53.696Z,39.00
2018-04-10T14:41:20.698Z,38.80
2018-04-10T14:43:46.938Z,38.80
2018-04-10T14:46:13.204Z,38.10
2018-04-10T14:48:39.458Z,38.60
2018-04-10T14:51:05.731Z,38.00
2018-04-10T14:53:32.048Z,39.20
2018-04-10T14:55:59.106Z,38.40
2018-04-10T14:58:25.513Z,39.20
2018-04-10T15:00:51.781Z,39.30
2018-04-10T15:03:18.035Z,39.20
2018-04-10T15:05:45.084Z,39.60
2018-04-10T15:08:11.345Z,39.40
2018-04-10T15:10:38.356Z,40.00
2018-04-10T15:13:04.614Z,39.30
2018-04-10T15:15:34.599Z,40.20
2018-04-10T15:18:05.684Z,41.10
2018-04-10T15:20:32.020Z,40.90
2018-04-10T15:22:59.035Z,42.30
2018-04-10T15:25:25.404Z,42.20
2018-04-10T15:27:52.454Z,43.20
2018-04-10T15:30:19.469Z,43.50
2018-04-10T15:32:45.749Z,43.40
2018-04-10T15:35:12.008Z,45.50
2018-04-10T15:37:38.270Z,47.10
2018-04-10T15:40:04.529Z,48.20
2018-04-10T15:42:30.831Z,49.30
2018-04-10T15:44:57.293Z,50.10
2018-04-10T15:47:24.350Z,50.90
2018-04-10T15:49:51.349Z,52.00
2018-04-10T15:52:17.612Z,51.90
2018-04-10T15:54:46.568Z,50.70
2018-04-10T15:57:12.835Z,50.70
2018-04-10T15:59:39.196Z,51.50
2018-04-10T16:02:05.491Z,51.80
2018-04-10T16:04:31.902Z,51.60
2018-04-10T16:06:58.188Z,53.10
2018-04-10T16:09:24.437Z,54.80
2018-04-10T16:11:50.709Z,55.30
2018-04-10T16:14:20.433Z,56.70
2018-04-10T16:16:46.716Z,58.90
2018-04-10T16:19:13.011Z,60.30
2018-04-10T16:21:39.268Z,62.90
2018-04-10T16:24:05.574Z,62.30
2018-04-10T16:26:31.826Z,62.20
2018-04-10T16:28:58.084Z,61.30
2018-04-10T16:31:24.336Z,63.20
2018-04-10T16:33:50.614Z,63.70
2018-04-10T16:36:16.913Z,63.90
2018-04-10T16:38:43.939Z,66.10
2018-04-10T16:41:10.197Z,66.10
2018-04-10T16:43:36.486Z,67.70
2018-04-10T16:46:02.764Z,67.80
2018-04-10T16:48:30.069Z,66.40
2018-04-10T16:50:56.389Z,67.00
2018-04-10T16:53:22.656Z,66.90
2018-04-10T16:55:48.965Z,66.60
2018-04-10T16:58:15.273Z,66.10
2018-04-10T17:00:42.344Z,66.90
2018-04-10T17:03:08.940Z,66.60
2018-04-10T17:05:35.177Z,64.70
2018-04-10T17:08:01.430Z,63.20
2018-04-10T17:10:28.269Z,66.00
2018-04-10T17:12:54.516Z,65.60
2018-04-10T17:15:20.777Z,65.20
2018-04-10T17:17:47.045Z,63.80
2018-04-10T17:20:13.364Z,64.90
2018-04-10T17:22:40.485Z,66.10
2018-04-10T17:25:06.789Z,67.30
2018-04-10T17:27:33.028Z,67.00
2018-04-10T17:29:59.362Z,68.10
2018-04-10T17:32:25.608Z,69.20
2018-04-10T17:34:51.879Z,70.40
2018-04-10T17:37:18.873Z,72.00
2018-04-10T17:39:45.220Z,71.40
2018-04-10T17:42:11.482Z,72.20
2018-04-10T17:44:37.762Z,73.00
2018-04-10T17:47:04.062Z,74.00
2018-04-10T17:49:30.727Z,74.90
2018-04-10T17:54:50.863Z,79.30
2018-04-10T17:57:17.925Z,80.30
2018-04-10T17:59:44.213Z,79.80
2018-04-10T18:02:10.539Z,82.70
2018-04-10T18:04:36.803Z,81.20
2018-04-10T18:07:03.186Z,80.70
2018-04-10T18:09:30.221Z,81.30
2018-04-10T18:11:56.457Z,81.20
2018-04-10T18:14:23.526Z,82.10
2018-04-10T18:16:50.070Z,82.00
2018-04-10T18:19:17.434Z,82.70
2018-04-10T18:21:43.721Z,83.10
2018-04-10T18:24:09.981Z,82.90
2018-04-10T18:26:36.312Z,83.20
2018-04-10T18:29:02.580Z,82.60
2018-04-10T18:31:28.877Z,82.90
2018-04-10T18:33:55.257Z,83.40
2018-04-10T18:36:22.210Z,84.20
2018-04-10T18:38:48.481Z,84.00
2018-04-10T18:41:14.737Z,83.80
2018-04-10T18:43:41.749Z,83.70
2018-04-10T18:46:08.788Z,84.10
2018-04-10T18:48:35.056Z,84.00
2018-04-10T18:51:02.074Z,84.40
2018-04-10T18:53:29.087Z,84.20
2018-04-10T18:55:55.373Z,84.20
2018-04-10T18:58:21.645Z,84.10
2018-04-10T19:00:47.912Z,83.70
2018-04-10T19:03:14.177Z,83.90
2018-04-10T19:05:41.182Z,86.20
2018-04-10T19:08:07.508Z,86.20
2018-04-10T19:10:34.853Z,85.20
2018-04-10T19:13:01.122Z,85.90
2018-04-10T19:15:27.373Z,86.50
2018-04-10T19:17:54.769Z,85.00
2018-04-10T19:20:21.529Z,85.00
2018-04-10T19:22:49.224Z,84.10
2018-04-10T19:25:18.221Z,84.60
2018-04-10T19:27:45.533Z,84.30
2018-04-10T19:30:12.070Z,85.80
2018-04-10T19:32:38.705Z,87.50
2018-04-10T19:35:05.069Z,86.90
2018-04-10T19:37:31.341Z,86.90
2018-04-10T19:39:57.630Z,85.80
2018-04-10T19:42:23.983Z,87.20
2018-04-10T19:44:50.250Z,89.10
2018-04-10T19:47:17.588Z,90.00
2018-04-10T19:49:43.961Z,90.30
2018-04-10T19:52:10.253Z,90.50
2018-04-10T19:54:37.312Z,90.50
2018-04-10T19:57:03.649Z,90.50
2018-04-10T19:59:30.021Z,90.60
2018-04-10T20:01:56.273Z,90.50
2018-04-10T20:04:25.328Z,90.40
2018-04-10T20:06:51.657Z,90.60
2018-04-10T20:09:18.294Z,90.90
2018-04-10T20:11:44.565Z,91.00
2018-04-10T20:14:10.863Z,91.10
2018-04-10T20:16:37.125Z,90.90
2018-04-10T20:19:03.437Z,90.20
2018-04-10T20:21:29.746Z,90.50
2018-04-10T20:23:56.028Z,90.70
2018-04-10T20:26:22.276Z,90.30
2018-04-10T20:28:48.545Z,90.00
2018-04-10T20:31:14.797Z,90.00
2018-04-10T20:33:41.125Z,90.40
2018-04-10T20:36:07.381Z,90.40
2018-04-10T20:38:34.657Z,90.80
2018-04-10T20:41:00.957Z,91.10
2018-04-10T20:43:27.271Z,91.40
2018-04-10T20:45:53.569Z,91.70
2018-04-10T20:48:20.637Z,91.90
2018-04-10T20:50:46.925Z,91.90
2018-04-10T20:53:13.949Z,91.20
2018-04-10T20:55:40.393Z,89.90
2018-04-10T20:58:06.659Z,90.00
2018-04-10T21:00:33.673Z,90.00
2018-04-10T21:02:59.938Z,90.00
2018-04-10T21:05:26.214Z,90.80
2018-04-10T21:07:52.484Z,86.80
2018-04-10T21:10:18.765Z,87.70
2018-04-10T21:12:45.021Z,86.70
2018-04-10T21:15:11.294Z,86.50
2018-04-10T21:17:37.545Z,86.50
2018-04-10T21:20:03.822Z,85.70
2018-04-10T21:22:30.065Z,85.10
2018-04-10T21:24:56.344Z,85.40
2018-04-10T21:27:22.603Z,86.10
2018-04-10T21:29:49.633Z,84.60
2018-04-10T21:32:15.919Z,84.10
2018-04-10T21:34:42.162Z,84.50
2018-04-10T21:37:08.421Z,82.20
2018-04-10T21:39:34.677Z,79.20
2018-04-10T21:42:00.965Z,78.60
2018-04-10T21:44:27.281Z,79.20
2018-04-10T21:46:53.550Z,79.40
2018-04-10T21:49:19.843Z,77.00
2018-04-10T21:51:46.601Z,78.30
2018-04-10T21:54:13.377Z,78.90
2018-04-10T21:56:39.641Z,80.30
2018-04-10T21:59:05.961Z,78.70
2018-04-10T22:01:32.245Z,77.10
2018-04-10T22:03:58.502Z,79.00
2018-04-10T22:06:24.780Z,78.10
2018-04-10T22:08:51.041Z,82.20
2018-04-10T22:11:18.060Z,84.60
2018-04-10T22:13:44.425Z,84.50
2018-04-10T22:16:10.705Z,84.90
2018-04-10T22:18:37.034Z,83.80
2018-04-10T22:21:03.321Z,84.80
2018-04-10T22:23:29.645Z,84.60
2018-04-10T22:25:57.825Z,86.70
2018-04-10T22:28:23.211Z,86.70
2018-04-10T22:30:49.469Z,87.00
2018-04-10T22:33:15.710Z,87.90
2018-04-10T22:35:41.966Z,88.40
2018-04-10T22:38:08.250Z,88.20
2018-04-10T22:40:34.533Z,88.60
2018-04-10T22:43:00.843Z,88.90
2018-04-10T22:45:27.122Z,89.20
2018-04-10T22:47:53.388Z,88.40
2018-04-10T22:50:19.809Z,88.40
2018-04-10T22:52:46.841Z,87.80
2018-04-10T22:55:13.265Z,87.70
2018-04-10T22:57:39.569Z,87.60
2018-04-10T23:00:06.002Z,86.90
2018-04-10T23:02:32.273Z,88.00
2018-04-10T23:04:58.537Z,88.60
2018-04-10T23:07:24.822Z,88.00
2018-04-10T23:09:51.097Z,87.90
2018-04-10T23:12:17.418Z,88.90
2018-04-10T23:14:43.697Z,88.80
2018-04-10T23:17:10.002Z,88.90
2018-04-10T23:19:36.257Z,89.70
2018-04-10T23:22:02.510Z,89.80
2018-04-10T23:24:28.830Z,88.10
2018-04-10T23:26:55.121Z,88.80
2018-04-10T23:29:22.987Z,89.30
2018-04-10T23:31:49.989Z,89.50
2018-04-10T23:34:16.265Z,89.50
2018-04-10T23:36:42.539Z,89.60
2018-04-10T23:39:08.830Z,89.60
2018-04-10T23:41:35.945Z,90.10
2018-04-10T23:44:02.254Z,90.10
2018-04-10T23:46:28.509Z,90.00
2018-04-10T23:48:54.791Z,90.20
2018-04-10T23:51:21.134Z,90.00
2018-04-10T23:53:48.276Z,90.20
2018-04-10T23:56:14.497Z,90.20
2018-04-10T23:58:40.771Z,89.90
